Terminal Aerodrome Forecast
Issued by NWS Chicago, IL

Home | Current Version | Previous Version | Graphics & Text | Print | Product List | Glossary On
Versions: 1 2 3 4 5 6 7 8 9 10 11 12 13 14 15 16 17 18 19 20
495
FTUS43 KLOT 241120
TAFRFD
TAF
KRFD 241120Z 2412/2512 15003KT P6SM SKC
     FM241500 16008KT P6SM FEW050
     FM250100 14004KT P6SM SKC=

USA.gov is the U.S. government's official web portal to all federal, state and local government web resources and services.